Tuesday, June 19, 2018, 3:59 PM EDT
Back to Local

KPHF, Williamsburg International Airport

Location: Newport News, VA, United States Lat: 37.133
Local Time: 3:59 PM EDT (19:59 GMT) Lon: -76.5
Time Zone: US/Eastern Elev: 42 ft

Show me the last for .
Show Coded

Time T Td Feel RH Dir Speed Gust Alt SLP Vis Weather Sky Remarks
2018-06-19 14:54 97 70 105 41 310° 12 - 29.80 29.80 10 CLR None
2018-06-19 13:54 96 71 105 44 280° 9 - 29.82 29.82 10 CLR 6-hr Min Temp (2pm): 82.9°F
6-hr Max Temp (2pm): 97.0°F
2018-06-19 12:54 95 71 104 46 290° 9 - 29.84 29.83 10 CLR None
2018-06-19 11:54 94 71 102 47 290° 9 - 29.85 29.85 10 CLR None
2018-06-19 10:54 92 73 102 54 300° 7 - 29.86 29.86 10 CLR None
2018-06-19 09:54 88 73 96 61 280° 10 - 29.87 29.87 9 CLR None
2018-06-19 08:54 86 73 93 65 280° 12 - 29.88 29.88 9 CLR None
2018-06-19 07:54 83 73 89 72 290° 8 - 29.89 29.88 7 CLR 6-hr Min Temp (8am): 78.1°F
6-hr Max Temp (8am): 82.9°F
2018-06-19 06:54 79 73 84 82 250° 6 - 29.89 29.89 8 CLR None
2018-06-19 05:54 79 72 84 79 260° 9 - 29.88 29.88 8 CLR None
2018-06-19 04:54 80 73 85 79 250° 7 - 29.87 29.87 9 CLR None
2018-06-19 03:54 78 73 83 84 230° 7 - 29.87 29.87 8 CLR None
2018-06-19 02:54 78 74 83 87 240° 7 - 29.89 29.89 7 CLR None
2018-06-19 01:54 78 74 83 87 220° 8 - 29.90 29.90 8 CLR 6-hr Min Temp (2am): 77.0°F
6-hr Max Temp (2am): 84.9°F
2018-06-19 00:54 79 74 84 84 220° 6 - 29.92 29.91 9 CLR 24-hr Min Temp (1am): 70.0°F
24-hr Max Temp (1am): 90.0°F
2018-06-18 23:54 80 75 86 84 210° 7 - 29.94 29.93 9 CLR None
2018-06-18 22:54 80 74 86 81 210° 6 - 29.94 29.93 10 CLR None
2018-06-18 21:54 78 70 82 76 - Calm - 29.93 29.93 10 CLR None
2018-06-18 20:54 82 70 86 67 170° 5 - 29.93 29.93 10 CLR None
2018-06-18 19:54 84 72 90 67 160° 6 - 29.93 29.93 10 CLR 6-hr Min Temp (8pm): 84.0°F
6-hr Max Temp (8pm): 90.0°F
2018-06-18 18:54 87 71 93 59 120° 6 - 29.95 29.94 10 CLR None
2018-06-18 17:54 88 73 96 61 60° 5 - 29.96 29.96 10 CLR None
2018-06-18 16:54 89 71 96 55 80° 7 - 29.98 29.98 10 CLR None

Support USWX by starting your Amazon purchase here.